Time;durP1;ratioP1;P1;durP2;ratioP2;P2;SDS_P1;SDS_P2;PMS_P1;PMS_P2;Temp;Humidity;BMP_temperature;BMP_pressure;BME280_temperature;BME280_humidity;BME280_pressure;Samples;Min_cycle;Max_cycle;Signal;HPM_P1;HPM_P2
2021/03/20 00:01:43;;;;;;;7.30;3.67;;;1.20;79.20;;;;;;6217901;23;20484;-76
2021/03/20 00:04:09;;;;;;;5.23;3.23;;;1.20;79.30;;;;;;6217987;23;20087;-75
2021/03/20 00:06:41;;;;;;;5.67;3.30;;;1.30;79.20;;;;;;6218069;23;20004;-75
2021/03/20 00:09:10;;;;;;;4.33;2.80;;;1.20;78.90;;;;;;6218751;23;20057;-75
2021/03/20 00:11:38;;;;;;;6.90;3.33;;;1.20;79.00;;;;;;6244872;23;20537;-75
2021/03/20 00:14:04;;;;;;;6.93;3.10;;;1.20;79.20;;;;;;6217976;23;20004;-75
2021/03/20 00:16:29;;;;;;;5.87;3.03;;;1.10;79.30;;;;;;6217232;23;20000;-74
2021/03/20 00:18:55;;;;;;;6.27;3.03;;;1.20;79.20;;;;;;6218444;23;20419;-73
2021/03/20 00:21:21;;;;;;;6.47;3.07;;;1.20;78.90;;;;;;6217624;23;20045;-73
2021/03/20 00:23:47;;;;;;;3.97;2.77;;;1.20;78.40;;;;;;6243874;23;20437;-73
2021/03/20 00:26:13;;;;;;;5.23;2.87;;;1.20;78.60;;;;;;6217740;23;20004;-73
2021/03/20 00:28:40;;;;;;;5.77;3.27;;;1.10;78.90;;;;;;6217135;23;20000;-74
2021/03/20 00:31:11;;;;;;;5.13;2.90;;;1.00;79.30;;;;;;6245039;23;20004;-74
2021/03/20 00:33:39;;;;;;;6.85;3.15;;;1.00;79.60;;;;;;6217893;23;20415;-74
2021/03/20 00:36:06;;;;;;;5.90;2.70;;;0.90;79.80;;;;;;6217313;23;20011;-75
2021/03/20 00:38:33;;;;;;;4.97;2.77;;;0.90;79.80;;;;;;6243495;23;19992;-73
2021/03/20 00:40:59;;;;;;;5.10;2.70;;;0.90;79.60;;;;;;6244017;23;20075;-73
2021/03/20 00:43:26;;;;;;;4.87;3.20;;;0.80;79.70;;;;;;6243485;23;20469;-76
2021/03/20 00:45:52;;;;;;;6.40;2.73;;;0.90;79.70;;;;;;6243450;23;20039;-74
2021/03/20 00:48:28;;;;;;;4.57;2.83;;;0.90;79.50;;;;;;6244887;23;20019;-75
2021/03/20 00:50:56;;;;;;;5.30;2.93;;;1.00;79.40;;;;;;6244019;23;20008;-72
2021/03/20 00:53:22;;;;;;;4.80;2.70;;;0.90;79.60;;;;;;6216793;23;20497;-73
2021/03/20 00:55:48;;;;;;;5.33;2.93;;;0.90;79.70;;;;;;6216995;23;19992;-73
2021/03/20 00:58:26;;;;;;;5.57;2.80;;;0.90;79.60;;;;;;6244474;23;20046;-73
2021/03/20 01:00:55;;;;;;;5.53;2.70;;;0.90;79.50;;;;;;6217134;23;20062;-73
2021/03/20 01:03:21;;;;;;;5.63;3.10;;;0.90;79.60;;;;;;6217851;23;20008;-73
2021/03/20 01:05:47;;;;;;;5.10;3.13;;;0.90;79.60;;;;;;6243900;23;20545;-73
2021/03/20 01:08:13;;;;;;;6.07;2.77;;;0.90;79.20;;;;;;6217773;23;20424;-73
2021/03/20 01:10:39;;;;;;;4.87;2.80;;;0.90;78.90;;;;;;6216592;23;20008;-74
2021/03/20 01:13:05;;;;;;;5.70;2.97;;;1.00;79.10;;;;;;6217079;23;20526;-73
2021/03/20 01:15:31;;;;;;;7.80;3.20;;;1.10;78.90;;;;;;6217532;23;20082;-73
2021/03/20 01:17:57;;;;;;;5.20;3.07;;;1.10;78.50;;;;;;6219721;23;20008;-73
2021/03/20 01:20:23;;;;;;;9.80;3.10;;;1.10;78.60;;;;;;6219910;23;20016;-73
2021/03/20 01:22:49;;;;;;;5.87;3.23;;;1.00;78.70;;;;;;6218928;23;20047;-73
2021/03/20 01:25:15;;;;;;;6.57;3.23;;;0.80;79.20;;;;;;6219595;23;20004;-73
2021/03/20 01:27:41;;;;;;;5.73;3.07;;;0.80;79.80;;;;;;6245798;23;20058;-73
2021/03/20 01:30:16;;;;;;;4.37;2.67;;;0.70;80.00;;;;;;6219167;23;20011;-73
2021/03/20 01:32:41;;;;;;;4.13;2.77;;;0.70;80.30;;;;;;6217281;23;20034;-73
2021/03/20 01:35:08;;;;;;;5.63;3.10;;;0.70;80.40;;;;;;6219659;23;20000;-73
2021/03/20 01:37:34;;;;;;;3.77;2.50;;;0.70;80.20;;;;;;6244569;23;20501;-73
2021/03/20 01:39:59;;;;;;;4.63;2.40;;;0.70;80.30;;;;;;6219398;23;20044;-73
2021/03/20 01:42:25;;;;;;;5.83;3.20;;;0.70;80.50;;;;;;6245873;23;20007;-73
2021/03/20 01:45:17;;;;;;;5.57;3.30;;;0.60;80.40;;;;;;6213605;23;20020;-75
2021/03/20 01:48:05;;;;;;;6.55;3.47;;;0.60;81.00;;;;;;6214049;23;20055;-73
2021/03/20 01:50:39;;;;;;;7.80;2.60;;;0.60;81.00;;;;;;6215953;23;20443;-73
2021/03/20 01:53:43;;;;;;;6.80;2.80;;;0.60;80.30;;;;;;6214762;23;20058;-72
2021/03/20 01:56:21;;;;;;;5.80;2.70;;;0.70;80.30;;;;;;6214588;23;20012;-73
2021/03/20 01:58:49;;;;;;;6.60;3.23;;;0.70;80.20;;;;;;6214834;23;20008;-73
2021/03/20 02:01:25;;;;;;;8.00;3.50;;;0.70;80.10;;;;;;6214216;23;20017;-73
2021/03/20 02:03:52;;;;;;;7.20;3.17;;;0.80;80.00;;;;;;6215037;23;20007;-73
2021/03/20 02:06:18;;;;;;;8.73;3.93;;;0.90;80.00;;;;;;6214324;23;20026;-73
2021/03/20 02:08:46;;;;;;;7.90;3.53;;;0.90;79.90;;;;;;6213163;23;20063;-73
2021/03/20 02:11:27;;;;;;;7.20;3.53;;;1.00;79.70;;;;;;6215850;23;20423;-73
2021/03/20 02:14:27;;;;;;;7.30;3.10;;;1.10;79.90;;;;;;6214045;23;20012;-73
2021/03/20 02:16:57;;;;;;;9.93;3.40;;;1.30;79.70;;;;;;6138814;23;20032;-73
2021/03/20 02:19:49;;;;;;;7.57;3.53;;;1.30;79.00;;;;;;6214314;23;20092;-73
2021/03/20 02:22:40;;;;;;;11.80;4.25;;;1.30;78.30;;;;;;6214573;23;20088;-73
2021/03/20 02:25:20;;;;;;;7.20;3.50;;;1.40;78.10;;;;;;6215757;23;20035;-73
2021/03/20 02:27:46;;;;;;;8.03;3.67;;;1.50;78.10;;;;;;6214599;23;19993;-73
2021/03/20 02:30:44;;;;;;;5.97;3.37;;;1.50;77.70;;;;;;6214343;23;20036;-73
2021/03/20 02:33:26;;;;;;;6.57;3.20;;;1.50;78.20;;;;;;6214973;23;20067;-73
2021/03/20 02:35:55;;;;;;;;;;;1.60;78.00;;;;;;6214070;23;20000;-73
2021/03/20 02:38:26;;;;;;;6.00;3.50;;;1.60;77.30;;;;;;6214130;23;19900;-73
2021/03/20 02:41:00;;;;;;;9.02;3.60;;;1.70;77.60;;;;;;6213591;23;20013;-73
2021/03/20 02:43:45;;;;;;;5.93;3.40;;;1.80;77.40;;;;;;6213387;23;20008;-75
2021/03/20 02:46:23;;;;;;;9.93;3.63;;;1.80;76.90;;;;;;6188720;23;20008;-73
2021/03/20 02:49:02;;;;;;;8.13;3.57;;;1.70;77.00;;;;;;6187407;23;19992;-73
2021/03/20 02:51:30;;;;;;;6.03;3.00;;;1.60;76.80;;;;;;6188532;23;20008;-73
2021/03/20 02:54:13;;;;;;;5.83;3.30;;;1.60;76.70;;;;;;6188576;23;20008;-73
2021/03/20 02:57:00;;;;;;;7.43;3.60;;;1.70;76.80;;;;;;6187610;23;20001;-74
2021/03/20 02:59:33;;;;;;;6.67;3.30;;;1.70;76.90;;;;;;6188147;23;20011;-74
2021/03/20 03:02:03;;;;;;;9.33;4.03;;;1.70;76.90;;;;;;6188594;23;20015;-73
2021/03/20 03:04:34;;;;;;;7.33;3.97;;;1.70;76.70;;;;;;6187793;23;19997;-75
2021/03/20 03:07:19;;;;;;;8.93;4.10;;;1.80;76.90;;;;;;6188709;23;20012;-73
2021/03/20 03:09:52;;;;;;;7.47;3.70;;;1.80;77.10;;;;;;6188146;23;20005;-73
2021/03/20 03:12:35;;;;;;;6.63;3.87;;;1.90;77.00;;;;;;6188707;23;20431;-73
2021/03/20 03:15:24;;;;;;;7.63;4.30;;;1.90;76.90;;;;;;6214737;23;20001;-73
2021/03/20 03:18:01;;;;;;;8.07;3.80;;;1.90;77.00;;;;;;6214241;23;20281;-73
2021/03/20 03:20:32;;;;;;;9.43;4.10;;;1.90;77.00;;;;;;6187814;23;20027;-74
2021/03/20 03:23:05;;;;;;;7.63;3.95;;;1.90;77.20;;;;;;6188755;23;20012;-73
2021/03/20 03:25:35;;;;;;;10.97;4.20;;;1.90;77.40;;;;;;6214627;23;20453;-73
2021/03/20 03:28:06;;;;;;;6.53;3.67;;;1.90;77.70;;;;;;6187865;23;20005;-73
2021/03/20 03:30:33;;;;;;;7.97;4.50;;;1.90;77.70;;;;;;6214466;23;20004;-74
2021/03/20 03:33:17;;;;;;;8.83;4.60;;;1.90;77.60;;;;;;6188922;23;20010;-73
2021/03/20 03:35:47;;;;;;;7.87;4.03;;;2.00;77.90;;;;;;6187881;23;20001;-73
2021/03/20 03:38:28;;;;;;;10.03;4.70;;;1.90;78.00;;;;;;6188149;23;20004;-73
2021/03/20 03:41:09;;;;;;;8.57;4.33;;;1.90;78.20;;;;;;6187911;23;20016;-73
2021/03/20 03:43:35;;;;;;;9.57;4.50;;;1.90;78.20;;;;;;6187739;23;20092;-73
2021/03/20 03:46:01;;;;;;;7.27;4.20;;;1.90;78.30;;;;;;6210889;23;20065;-73
2021/03/20 03:48:27;;;;;;;10.53;4.17;;;1.90;78.20;;;;;;6213022;23;20000;-75
2021/03/20 03:50:55;;;;;;;9.50;3.90;;;2.00;78.20;;;;;;6214672;23;20004;-73
2021/03/20 03:53:27;;;;;;;7.03;4.17;;;2.10;78.20;;;;;;6214677;23;20004;-73
2021/03/20 03:55:57;;;;;;;11.10;4.60;;;2.10;78.10;;;;;;6214117;23;20012;-73
2021/03/20 03:58:44;;;;;;;8.13;4.13;;;2.10;78.10;;;;;;6214783;23;19996;-73
2021/03/20 04:01:28;;;;;;;7.03;3.60;;;2.10;78.60;;;;;;6213041;23;20013;-73
2021/03/20 04:03:59;;;;;;;9.97;4.80;;;2.10;78.30;;;;;;6212523;23;20009;-73
2021/03/20 04:06:46;;;;;;;7.20;4.50;;;2.20;78.10;;;;;;6213030;23;20005;-73
2021/03/20 04:09:37;;;;;;;8.07;4.50;;;2.20;77.80;;;;;;6212917;23;20000;-73
2021/03/20 04:12:28;;;;;;;9.17;4.53;;;2.20;77.80;;;;;;6213295;23;20223;-73
2021/03/20 04:15:06;;;;;;;8.83;5.10;;;2.20;77.80;;;;;;6214036;23;20012;-73
2021/03/20 04:17:41;;;;;;;11.87;5.70;;;2.20;77.80;;;;;;6187216;23;20079;-74
2021/03/20 04:20:32;;;;;;;10.73;5.03;;;2.00;77.80;;;;;;6213022;23;20096;-73
2021/03/20 04:23:21;;;;;;;10.47;5.23;;;1.90;78.40;;;;;;6212993;23;20016;-73
2021/03/20 04:25:55;;;;;;;8.60;4.97;;;1.80;78.90;;;;;;6212221;23;20392;-73
2021/03/20 04:29:03;;;;;;;9.30;5.23;;;1.80;79.70;;;;;;6214033;23;20004;-73
2021/03/20 04:31:34;;;;;;;9.17;4.97;;;1.80;79.20;;;;;;6180107;23;20004;-74
2021/03/20 04:34:11;;;;;;;9.57;5.27;;;1.80;79.40;;;;;;6212854;23;20408;-73
2021/03/20 04:36:52;;;;;;;9.33;4.97;;;1.70;79.70;;;;;;6211181;23;20012;-73
2021/03/20 04:39:24;;;;;;;11.73;5.40;;;1.70;79.70;;;;;;6212740;23;20004;-73
2021/03/20 04:41:50;;;;;;;;;;;1.60;79.70;;;;;;6214061;23;19993;-73
2021/03/20 04:44:17;;;;;;;9.63;5.00;;;1.50;80.10;;;;;;6212324;23;20239;-73
2021/03/20 04:46:43;;;;;;;9.27;5.30;;;1.50;80.60;;;;;;6211860;23;20009;-73
2021/03/20 04:49:20;;;;;;;9.80;5.23;;;1.40;80.60;;;;;;6212675;23;20011;-73
2021/03/20 04:51:57;;;;;;;11.57;5.17;;;1.40;80.40;;;;;;6213408;23;20047;-73
2021/03/20 04:54:25;;;;;;;8.63;4.37;;;1.40;80.40;;;;;;6214184;23;19997;-73
2021/03/20 04:57:44;;;;;;;9.80;4.47;;;1.40;80.10;;;;;;6213649;23;20043;-74
2021/03/20 05:00:31;;;;;;;8.23;4.63;;;1.30;79.90;;;;;;6206683;23;20013;-75
2021/03/20 05:03:17;;;;;;;8.57;4.73;;;1.40;80.00;;;;;;6212622;23;20001;-73
2021/03/20 05:05:53;;;;;;;7.30;3.80;;;1.30;79.80;;;;;;6211694;23;20008;-73
2021/03/20 05:08:39;;;;;;;10.77;4.50;;;1.30;79.90;;;;;;6212997;23;20374;-73
2021/03/20 05:11:12;;;;;;;8.00;4.30;;;1.30;79.90;;;;;;6212676;23;20486;-73
2021/03/20 05:14:03;;;;;;;8.27;4.30;;;1.30;79.70;;;;;;6211675;23;20308;-73
2021/03/20 05:16:50;;;;;;;9.47;4.20;;;1.20;79.90;;;;;;6212290;23;20012;-74
2021/03/20 05:19:17;;;;;;;8.40;4.43;;;1.20;80.10;;;;;;6213573;23;20083;-73
2021/03/20 05:21:45;;;;;;;11.57;4.40;;;1.10;80.10;;;;;;6210907;23;20083;-73
2021/03/20 05:24:40;;;;;;;8.67;4.37;;;1.10;80.20;;;;;;6212842;23;20059;-73
2021/03/20 05:27:09;;;;;;;6.60;4.20;;;1.20;79.90;;;;;;6211824;23;20023;-73
2021/03/20 05:29:35;;;;;;;7.40;4.20;;;1.10;79.90;;;;;;6213353;23;20055;-73
2021/03/20 05:32:04;;;;;;;9.43;4.87;;;1.10;79.90;;;;;;6212615;23;20004;-73
2021/03/20 05:34:38;;;;;;;10.03;4.70;;;1.00;80.00;;;;;;6211798;23;20012;-75
2021/03/20 05:37:06;;;;;;;11.87;5.83;;;1.00;80.70;;;;;;6212280;23;20004;-74
2021/03/20 05:39:33;;;;;;;16.70;7.63;;;1.00;80.10;;;;;;6211602;23;20004;-74
2021/03/20 05:42:25;;;;;;;15.23;6.27;;;1.00;80.70;;;;;;6212422;23;20028;-73
2021/03/20 05:45:06;;;;;;;16.98;6.40;;;1.10;80.60;;;;;;6211254;23;20013;-74
2021/03/20 05:47:59;;;;;;;15.17;6.67;;;1.10;80.40;;;;;;6212008;23;20083;-74
2021/03/20 05:50:25;;;;;;;11.53;6.23;;;1.10;80.40;;;;;;6214383;23;20001;-74
2021/03/20 05:53:12;;;;;;;9.47;5.37;;;1.10;80.20;;;;;;6213418;23;20063;-73
2021/03/20 05:55:37;;;;;;;12.97;6.97;;;1.10;80.20;;;;;;6211703;23;20033;-74
2021/03/20 05:58:34;;;;;;;10.77;5.40;;;1.10;80.30;;;;;;6212578;23;20012;-73
2021/03/20 06:01:33;;;;;;;12.20;6.30;;;1.10;80.60;;;;;;6212565;23;20067;-74
2021/03/20 06:04:04;;;;;;;9.93;5.60;;;1.10;81.00;;;;;;6215443;23;20075;-74
2021/03/20 06:06:59;;;;;;;12.00;6.32;;;1.20;80.90;;;;;;6213655;23;20001;-76
2021/03/20 06:09:50;;;;;;;13.20;6.37;;;1.30;80.80;;;;;;6214435;23;20051;-74
2021/03/20 06:12:31;;;;;;;13.05;6.63;;;1.40;80.30;;;;;;6214139;23;20080;-74
2021/03/20 06:15:12;;;;;;;13.20;6.37;;;1.40;80.10;;;;;;6213916;23;20057;-74
2021/03/20 06:18:07;;;;;;;14.80;6.93;;;1.50;80.30;;;;;;6213598;23;19996;-74
2021/03/20 06:20:46;;;;;;;12.97;6.70;;;1.50;80.00;;;;;;6213046;23;20005;-74
2021/03/20 06:23:44;;;;;;;15.53;7.10;;;1.40;79.90;;;;;;6214290;23;20001;-74
2021/03/20 06:26:30;;;;;;;12.90;6.47;;;1.40;80.70;;;;;;6149410;23;20000;-74
2021/03/20 06:29:09;;;;;;;13.13;7.00;;;1.40;80.10;;;;;;6215961;23;20493;-74
2021/03/20 06:31:43;;;;;;;14.20;6.80;;;1.40;80.00;;;;;;6204106;23;20000;-74
2021/03/20 06:34:27;;;;;;;16.23;6.37;;;1.50;80.00;;;;;;6214480;23;19996;-74
2021/03/20 06:37:08;;;;;;;10.37;6.27;;;1.50;80.00;;;;;;6213865;23;20059;-74
2021/03/20 06:39:37;;;;;;;8.93;5.25;;;1.40;80.30;;;;;;6213490;23;20001;-74
2021/03/20 06:42:27;;;;;;;8.83;5.80;;;1.50;80.60;;;;;;6215263;23;20008;-74
2021/03/20 06:45:19;;;;;;;11.20;5.47;;;1.40;80.50;;;;;;6213041;23;20016;-74
2021/03/20 06:47:53;;;;;;;8.35;4.20;;;1.40;80.40;;;;;;6198383;23;20040;-74
2021/03/20 06:50:27;;;;;;;10.70;5.77;;;1.50;80.40;;;;;;6214247;23;20316;-74
2021/03/20 06:52:57;;;;;;;7.90;5.57;;;1.50;80.30;;;;;;6215011;23;20143;-74
2021/03/20 06:55:43;;;;;;;11.83;5.57;;;1.60;80.00;;;;;;6213595;23;20000;-74
2021/03/20 06:58:33;;;;;;;9.47;6.07;;;1.60;79.70;;;;;;6215411;23;20012;-74
2021/03/20 07:01:09;;;;;;;10.57;5.93;;;1.70;79.50;;;;;;6213969;23;20009;-74
2021/03/20 07:03:46;;;;;;;10.87;6.10;;;1.80;79.10;;;;;;6213090;23;20005;-74
2021/03/20 07:06:29;;;;;;;11.23;5.70;;;1.90;79.10;;;;;;6215354;23;20416;-74
2021/03/20 07:09:00;;;;;;;9.33;5.53;;;1.90;79.30;;;;;;6213410;23;20004;-74
2021/03/20 07:11:35;;;;;;;10.02;5.30;;;2.00;79.10;;;;;;6213885;23;20005;-74
2021/03/20 07:14:22;;;;;;;11.70;5.20;;;2.00;79.10;;;;;;6213190;23;20091;-74
2021/03/20 07:17:01;;;;;;;8.77;5.00;;;2.10;78.40;;;;;;6213401;23;20008;-74
2021/03/20 07:19:27;;;;;;;9.10;5.87;;;2.10;77.50;;;;;;6213688;23;20427;-74
2021/03/20 07:21:58;;;;;;;7.57;4.73;;;2.00;77.50;;;;;;6213390;23;20043;-74
2021/03/20 07:24:40;;;;;;;8.07;4.80;;;1.90;77.90;;;;;;6213759;23;20043;-74
2021/03/20 07:27:30;;;;;;;9.10;4.63;;;1.90;77.60;;;;;;6213530;23;20315;-75
2021/03/20 07:30:05;;;;;;;6.00;3.87;;;1.90;77.10;;;;;;6197356;23;20023;-74
2021/03/20 07:32:32;;;;;;;6.43;3.77;;;2.00;77.30;;;;;;6213892;23;19992;-74
2021/03/20 07:35:29;;;;;;;6.13;3.57;;;2.10;76.20;;;;;;6213546;23;20023;-74
2021/03/20 07:37:54;;;;;;;6.67;3.57;;;2.30;75.10;;;;;;6213531;23;20432;-73
2021/03/20 07:40:26;;;;;;;5.93;3.40;;;2.40;74.20;;;;;;6213426;23;20095;-74
2021/03/20 07:43:12;;;;;;;;;;;2.40;73.60;;;;;;6213901;23;20427;-74
2021/03/20 07:45:38;;;;;;;4.23;2.80;;;2.40;72.90;;;;;;6212396;23;19943;-74
2021/03/20 07:48:14;;;;;;;3.90;2.50;;;2.40;72.40;;;;;;6213595;23;20005;-74
2021/03/20 07:50:47;;;;;;;5.83;2.80;;;2.60;72.50;;;;;;6212260;23;20003;-74
2021/03/20 07:53:19;;;;;;;4.93;2.23;;;2.70;73.10;;;;;;6215086;23;20000;-74
2021/03/20 07:56:19;;;;;;;;;;;2.80;71.60;;;;;;6213256;23;20092;-74
2021/03/20 07:58:50;;;;;;;4.33;1.80;;;2.90;70.90;;;;;;6214120;23;19946;-74
2021/03/20 08:01:18;;;;;;;5.83;2.17;;;2.90;68.50;;;;;;6214441;23;20439;-74
2021/03/20 08:03:53;;;;;;;3.40;1.60;;;2.90;66.70;;;;;;6212518;23;20008;-74
2021/03/20 08:06:31;;;;;;;3.53;1.47;;;2.90;66.10;;;;;;6213057;23;19997;-74
2021/03/20 08:09:09;;;;;;;3.17;1.77;;;2.80;67.10;;;;;;6213246;23;20071;-74
2021/03/20 08:11:36;;;;;;;2.50;1.50;;;2.70;66.70;;;;;;6212362;23;20043;-74
2021/03/20 08:14:12;;;;;;;2.93;1.53;;;2.80;65.90;;;;;;6213087;23;20004;-74
2021/03/20 08:16:40;;;;;;;1.70;1.47;;;2.90;65.30;;;;;;6214065;23;20439;-74
2021/03/20 08:19:12;;;;;;;3.90;1.57;;;3.00;65.40;;;;;;6213164;23;20007;-74
2021/03/20 08:22:20;;;;;;;3.83;1.63;;;3.10;62.90;;;;;;6212498;23;20016;-74
2021/03/20 08:25:05;;;;;;;3.17;1.50;;;3.10;62.60;;;;;;6067981;23;20088;-74
2021/03/20 08:27:39;;;;;;;2.50;1.73;;;3.10;60.70;;;;;;6068504;23;20007;-74
2021/03/20 08:30:13;;;;;;;2.03;1.20;;;3.20;61.70;;;;;;6162105;23;20004;-74
2021/03/20 08:33:09;;;;;;;4.23;1.13;;;3.20;62.00;;;;;;6212297;23;20004;-74
2021/03/20 08:35:37;;;;;;;3.17;1.30;;;3.20;62.10;;;;;;6212404;23;20043;-74
2021/03/20 08:38:18;;;;;;;3.27;2.10;;;3.20;61.30;;;;;;6213029;23;20051;-74
2021/03/20 08:41:29;;;;;;;6.13;3.17;;;3.30;60.20;;;;;;6211906;23;20017;-74
2021/03/20 08:44:15;;;;;;;3.13;1.60;;;3.20;59.60;;;;;;6092740;23;20077;-74
2021/03/20 08:46:52;;;;;;;1.43;1.03;;;3.40;59.90;;;;;;6206886;23;20004;-74
2021/03/20 08:49:53;;;;;;;1.47;1.13;;;3.40;59.40;;;;;;6244835;23;20007;-74
2021/03/20 08:52:27;;;;;;;2.47;1.40;;;3.40;59.60;;;;;;6217787;23;20000;-74
2021/03/20 08:55:14;;;;;;;4.13;1.30;;;3.40;59.00;;;;;;6217870;23;20031;-74
2021/03/20 08:57:39;;;;;;;3.07;1.37;;;3.40;60.20;;;;;;6217292;23;20011;-74
2021/03/20 09:00:37;;;;;;;1.83;1.20;;;3.30;58.90;;;;;;6244504;23;20004;-75
2021/03/20 09:03:16;;;;;;;2.70;1.20;;;3.30;58.80;;;;;;6216657;23;20209;-75
2021/03/20 09:05:48;;;;;;;2.07;1.10;;;3.30;61.50;;;;;;6217507;23;20004;-74
2021/03/20 09:08:23;;;;;;;;;;;3.40;58.20;;;;;;6245448;23;20007;-74
2021/03/20 09:11:12;;;;;;;2.87;1.23;;;3.50;59.60;;;;;;6216914;23;19910;-74
2021/03/20 09:13:54;;;;;;;1.93;0.90;;;3.60;58.60;;;;;;6243877;23;20008;-74
2021/03/20 09:16:25;;;;;;;2.57;0.90;;;3.60;58.50;;;;;;6217920;23;20044;-74
2021/03/20 09:18:51;;;;;;;1.00;0.90;;;3.70;58.10;;;;;;6217224;23;20054;-74
2021/03/20 09:21:19;;;;;;;2.03;1.00;;;3.80;60.50;;;;;;6243942;23;20368;-74
2021/03/20 09:23:47;;;;;;;1.47;0.83;;;4.00;57.30;;;;;;6217208;23;20011;-74
2021/03/20 09:26:41;;;;;;;2.23;1.20;;;4.00;55.40;;;;;;6244834;23;20000;-73
2021/03/20 09:29:23;;;;;;;3.90;1.37;;;4.00;58.40;;;;;;6217738;23;20001;-74
2021/03/20 09:31:58;;;;;;;1.33;0.90;;;4.20;59.80;;;;;;6244007;23;20000;-73
2021/03/20 09:34:30;;;;;;;2.50;1.20;;;4.30;57.60;;;;;;6216596;23;20434;-73
2021/03/20 09:36:56;;;;;;;2.42;1.33;;;4.30;57.10;;;;;;6245497;23;19992;-73
2021/03/20 09:39:53;;;;;;;2.13;1.17;;;4.40;57.40;;;;;;6245813;23;20000;-75
2021/03/20 09:42:37;;;;;;;2.33;1.10;;;4.30;54.20;;;;;;6217045;23;20011;-76
2021/03/20 09:45:23;;;;;;;1.53;1.20;;;4.30;54.70;;;;;;6214173;23;20024;-75
2021/03/20 09:47:54;;;;;;;3.03;1.13;;;4.40;57.90;;;;;;6213835;23;20036;-76
2021/03/20 09:50:20;;;;;;;4.60;1.40;;;4.50;57.20;;;;;;6214633;23;20005;-75
2021/03/20 09:52:49;;;;;;;1.47;0.90;;;4.50;55.40;;;;;;6213747;23;20058;-75
2021/03/20 09:55:30;;;;;;;2.50;1.07;;;4.50;54.20;;;;;;6214968;23;20004;-76
2021/03/20 09:58:24;;;;;;;1.80;1.07;;;4.50;54.70;;;;;;6214750;23;20435;-76
2021/03/20 10:00:53;;;;;;;2.47;1.10;;;4.60;53.90;;;;;;6187600;23;20008;-76
2021/03/20 10:03:51;;;;;;;3.53;1.03;;;4.70;53.60;;;;;;6214246;23;20008;-80
2021/03/20 10:06:34;;;;;;;0.93;0.80;;;4.90;52.40;;;;;;6133685;23;20001;-76
2021/03/20 10:09:11;;;;;;;2.77;0.93;;;5.00;52.70;;;;;;6214471;23;20000;-74
2021/03/20 10:11:58;;;;;;;2.50;1.10;;;5.20;51.60;;;;;;6213426;23;20386;-75
2021/03/20 10:14:24;;;;;;;1.83;1.03;;;5.20;50.30;;;;;;6212941;23;20387;-76
2021/03/20 10:17:14;;;;;;;3.50;1.10;;;5.20;51.60;;;;;;6213943;23;20070;-75
2021/03/20 10:20:06;;;;;;;1.57;0.90;;;5.40;52.90;;;;;;6215676;23;20074;-77
2021/03/20 10:22:34;;;;;;;3.92;0.95;;;5.30;49.60;;;;;;6209655;23;20012;-78
2021/03/20 10:25:02;;;;;;;2.10;1.17;;;5.30;48.90;;;;;;6216067;23;20001;-78
2021/03/20 10:27:38;;;;;;;6.10;2.40;;;5.30;48.80;;;;;;6213701;23;20005;-79
2021/03/20 10:30:17;;;;;;;1.33;0.80;;;5.30;49.50;;;;;;6214938;23;20508;-77
2021/03/20 10:32:57;;;;;;;2.87;0.80;;;5.30;49.20;;;;;;6214248;23;19996;-77
2021/03/20 10:35:24;;;;;;;2.00;1.00;;;5.40;49.20;;;;;;6216414;23;19997;-77
2021/03/20 10:37:50;;;;;;;2.67;0.90;;;5.30;48.20;;;;;;6214135;23;20001;-77
2021/03/20 10:40:28;;;;;;;4.37;1.13;;;5.30;48.20;;;;;;6214554;23;20024;-74
2021/03/20 10:43:00;;;;;;;3.57;1.07;;;5.30;50.20;;;;;;6213828;23;20475;-74
2021/03/20 10:45:25;;;;;;;;;;;5.20;49.20;;;;;;6219362;23;20032;-75
2021/03/20 10:48:18;;;;;;;2.30;0.93;;;5.10;50.60;;;;;;6218142;23;19906;-76
2021/03/20 10:50:49;;;;;;;1.83;0.90;;;5.20;52.10;;;;;;6217258;23;20007;-78
2021/03/20 10:53:43;;;;;;;0.95;0.70;;;5.30;49.00;;;;;;6219457;23;20012;-75
2021/03/20 10:56:32;;;;;;;2.30;0.93;;;5.30;46.90;;;;;;6241465;23;20062;-74
2021/03/20 10:58:59;;;;;;;1.17;0.90;;;5.20;46.70;;;;;;6218954;23;20004;-75
2021/03/20 11:01:35;;;;;;;2.50;0.87;;;5.30;46.60;;;;;;6245775;23;20079;-76
2021/03/20 11:04:01;;;;;;;1.27;0.63;;;5.20;44.90;;;;;;6219260;23;20331;-75
2021/03/20 11:06:28;;;;;;;1.97;0.63;;;5.20;44.90;;;;;;6245876;23;20071;-75
2021/03/20 11:09:13;;;;;;;1.40;0.67;;;5.40;46.70;;;;;;6218932;23;20004;-75
2021/03/20 11:11:42;;;;;;;1.50;0.80;;;5.50;44.70;;;;;;6245427;23;20005;-73
2021/03/20 11:14:19;;;;;;;3.30;1.20;;;5.60;47.60;;;;;;6218691;23;20004;-74
2021/03/20 11:17:02;;;;;;;2.40;1.10;;;5.60;46.00;;;;;;6218055;23;20004;-75
2021/03/20 11:19:32;;;;;;;3.20;0.80;;;5.60;47.40;;;;;;6245784;23;20035;-73
2021/03/20 11:22:15;;;;;;;2.83;1.10;;;5.60;46.50;;;;;;6218653;23;20100;-74
2021/03/20 11:24:40;;;;;;;;;;;5.70;46.40;;;;;;6218668;23;20050;-74
2021/03/20 11:27:26;;;;;;;1.63;0.80;;;5.70;47.10;;;;;;6218903;23;20245;-74
2021/03/20 11:29:57;;;;;;;2.33;0.73;;;5.70;45.60;;;;;;6218059;23;20331;-74
2021/03/20 11:32:31;;;;;;;0.80;0.60;;;5.60;45.40;;;;;;6218887;23;20369;-75
2021/03/20 11:35:03;;;;;;;1.17;0.70;;;5.70;46.20;;;;;;6218697;23;20046;-74
2021/03/20 11:37:29;;;;;;;1.45;0.90;;;5.70;45.70;;;;;;6217825;23;20415;-77
2021/03/20 11:39:59;;;;;;;3.37;1.00;;;5.70;45.50;;;;;;6218442;23;20005;-73
2021/03/20 11:42:30;;;;;;;0.83;0.63;;;5.70;44.00;;;;;;6245488;23;20000;-74
2021/03/20 11:44:56;;;;;;;0.90;0.80;;;5.70;43.70;;;;;;6245481;23;20015;-74
2021/03/20 11:47:27;;;;;;;3.47;1.10;;;5.70;43.40;;;;;;6244704;23;20415;-74
2021/03/20 11:49:57;;;;;;;1.20;0.77;;;5.60;42.20;;;;;;6243858;23;20000;-74
2021/03/20 11:52:27;;;;;;;2.50;0.90;;;5.60;43.10;;;;;;6218260;23;20004;-74
2021/03/20 11:55:13;;;;;;;1.10;0.70;;;5.60;45.70;;;;;;6244111;23;19996;-74
2021/03/20 11:57:40;;;;;;;1.23;0.80;;;5.70;45.10;;;;;;6217386;23;20008;-74
2021/03/20 12:00:34;;;;;;;2.03;1.00;;;5.70;45.80;;;;;;6217499;23;19997;-75
2021/03/20 12:03:02;;;;;;;2.07;1.00;;;5.80;45.50;;;;;;6205000;23;20007;-83
2021/03/20 12:05:29;;;;;;;1.10;0.90;;;5.90;46.40;;;;;;6245500;23;20006;-73
2021/03/20 12:08:24;;;;;;;1.37;0.70;;;6.10;46.20;;;;;;6218718;23;20004;-79
2021/03/20 12:11:09;;;;;;;4.50;1.07;;;6.20;44.70;;;;;;6217617;23;20390;-76
2021/03/20 12:13:53;;;;;;;2.27;1.13;;;6.10;44.30;;;;;;6245129;23;20024;-77
2021/03/20 12:17:05;;;;;;;2.20;1.17;;;6.00;43.80;;;;;;6218799;23;20462;-73
2021/03/20 12:19:32;;;;;;;1.93;1.03;;;6.00;43.00;;;;;;6093250;23;19998;-75
2021/03/20 12:22:12;;;;;;;4.30;1.10;;;6.00;43.40;;;;;;6225300;23;20086;-73
2021/03/20 12:24:47;;;;;;;4.80;1.07;;;6.20;41.70;;;;;;6217561;23;20004;-73
2021/03/20 12:27:28;;;;;;;2.30;1.30;;;6.40;43.10;;;;;;6244926;23;20000;-73
2021/03/20 12:30:03;;;;;;;1.53;0.83;;;6.60;42.20;;;;;;6218630;23;20008;-73
2021/03/20 12:32:33;;;;;;;1.63;1.00;;;6.90;41.70;;;;;;6244708;23;20481;-75
2021/03/20 12:35:17;;;;;;;3.57;1.20;;;7.10;41.30;;;;;;6245403;23;20000;-72
2021/03/20 12:37:48;;;;;;;2.30;1.17;;;7.30;38.90;;;;;;6244104;23;20431;-74
2021/03/20 12:40:17;;;;;;;2.33;1.30;;;7.50;39.00;;;;;;6216872;23;20374;-74
2021/03/20 12:42:42;;;;;;;1.57;1.03;;;7.50;39.00;;;;;;6243135;23;19996;-73
2021/03/20 12:45:24;;;;;;;1.50;1.10;;;7.70;38.90;;;;;;6217601;23;20054;-74
2021/03/20 12:47:50;;;;;;;;;;;7.80;38.50;;;;;;6244674;23;20097;-74
2021/03/20 12:50:16;;;;;;;3.77;1.40;;;8.00;38.90;;;;;;6218130;23;20319;-77
2021/03/20 12:52:41;;;;;;;37.00;15.50;;;8.00;39.80;;;;;;6244133;23;20067;-71
2021/03/20 12:55:08;;;;;;;16.30;9.00;;;8.00;40.30;;;;;;6217611;23;20026;-75
2021/03/20 12:57:34;;;;;;;2.87;1.90;;;8.10;42.30;;;;;;6217648;23;20331;-76
2021/03/20 13:00:03;;;;;;;2.70;1.47;;;8.40;39.50;;;;;;6244431;23;20027;-75
2021/03/20 13:02:29;;;;;;;1.90;1.30;;;8.70;39.60;;;;;;6217458;23;20435;-76
2021/03/20 13:04:54;;;;;;;2.43;1.10;;;9.00;38.70;;;;;;6218016;23;20000;-74
2021/03/20 13:07:21;;;;;;;2.10;1.17;;;9.20;39.20;;;;;;6244851;23;20469;-73
2021/03/20 13:09:50;;;;;;;2.70;1.20;;;9.10;39.40;;;;;;6217493;23;20042;-73
2021/03/20 13:12:16;;;;;;;3.05;1.10;;;9.50;39.90;;;;;;6245749;23;20011;-73
2021/03/20 13:14:42;;;;;;;1.70;1.08;;;10.20;37.60;;;;;;6219149;23;20004;-74
2021/03/20 13:17:10;;;;;;;1.80;1.00;;;10.70;38.00;;;;;;6220096;23;20090;-74
2021/03/20 13:19:36;;;;;;;1.42;1.05;;;11.30;35.00;;;;;;6219517;23;20004;-73
2021/03/20 13:22:02;;;;;;;3.13;1.45;;;11.50;36.70;;;;;;6246877;23;20072;-74
2021/03/20 13:24:29;;;;;;;1.90;1.10;;;11.60;34.70;;;;;;6220038;23;20512;-74
2021/03/20 13:26:55;;;;;;;1.88;1.17;;;11.90;34.30;;;;;;6219836;23;20083;-74
2021/03/20 13:29:21;;;;;;;4.07;1.30;;;12.40;33.20;;;;;;6219904;23;20039;-75
2021/03/20 13:31:48;;;;;;;2.00;1.17;;;12.70;33.90;;;;;;6245807;23;20438;-74
2021/03/20 13:34:14;;;;;;;3.65;1.10;;;13.10;31.50;;;;;;6219220;23;20435;-74
2021/03/20 13:36:39;;;;;;;2.83;1.20;;;13.20;31.60;;;;;;6219256;23;20033;-74
2021/03/20 13:39:07;;;;;;;3.80;1.23;;;13.30;31.40;;;;;;6219874;23;20004;-75
2021/03/20 13:41:32;;;;;;;1.40;1.15;;;13.20;31.90;;;;;;6219194;23;20004;-74
2021/03/20 13:43:59;;;;;;;2.85;1.33;;;13.60;32.10;;;;;;6219556;23;20046;-75